createdAt,value
2023-08-17T00:00:20.293Z,6.78
2023-08-17T00:02:48.540Z,9.50
2023-08-17T00:05:16.793Z,5.22
2023-08-17T00:07:44.980Z,6.35
2023-08-17T00:10:13.103Z,7.95
2023-08-17T00:12:41.194Z,8.43
2023-08-17T00:15:11.548Z,7.30
2023-08-17T00:17:39.686Z,6.35
2023-08-17T00:20:10.929Z,9.25
2023-08-17T00:22:39.663Z,8.13
2023-08-17T00:25:10.452Z,8.63
2023-08-17T00:27:38.443Z,11.48
2023-08-17T00:30:07.721Z,9.57
2023-08-17T00:32:37.238Z,9.13
2023-08-17T00:35:05.795Z,13.05
2023-08-17T00:37:33.709Z,15.05
2023-08-17T00:40:02.085Z,12.35
2023-08-17T00:42:30.093Z,10.63
2023-08-17T00:44:58.250Z,13.65
2023-08-17T00:47:27.731Z,11.48
2023-08-17T00:49:58.572Z,10.15
2023-08-17T00:52:26.885Z,16.48
2023-08-17T00:54:55.800Z,10.73
2023-08-17T00:57:24.521Z,9.60
2023-08-17T01:00:04.799Z,13.48
2023-08-17T01:02:34.133Z,10.75
2023-08-17T01:05:04.084Z,12.10
2023-08-17T01:07:32.209Z,13.10
2023-08-17T01:10:01.474Z,10.93
2023-08-17T01:12:33.346Z,8.80
2023-08-17T01:15:08.864Z,12.48
2023-08-17T01:17:44.778Z,15.35
2023-08-17T01:20:19.192Z,10.93
2023-08-17T01:22:50.703Z,11.52
2023-08-17T01:25:19.974Z,12.77
2023-08-17T01:27:48.592Z,11.23
2023-08-17T01:30:20.392Z,10.80
2023-08-17T01:32:56.088Z,12.00
2023-08-17T01:35:32.869Z,13.70
2023-08-17T01:38:05.320Z,14.98
2023-08-17T01:40:36.354Z,12.40
2023-08-17T01:43:05.439Z,14.73
2023-08-17T01:45:33.450Z,10.63
2023-08-17T01:48:01.878Z,10.95
2023-08-17T01:50:30.461Z,15.23
2023-08-17T01:52:58.657Z,13.00
2023-08-17T01:55:28.058Z,13.45
2023-08-17T01:57:57.809Z,12.40
2023-08-17T02:00:25.910Z,11.60
2023-08-17T02:02:54.025Z,11.98
2023-08-17T02:05:22.280Z,13.73
2023-08-17T02:07:50.283Z,12.38
2023-08-17T02:10:18.533Z,18.15
2023-08-17T02:12:46.487Z,18.70
2023-08-17T02:15:16.188Z,12.13
2023-08-17T02:17:44.335Z,16.10
2023-08-17T02:20:14.522Z,20.35
2023-08-17T02:22:42.577Z,20.60
2023-08-17T02:25:11.151Z,19.17
2023-08-17T02:27:39.203Z,18.63
2023-08-17T02:30:08.430Z,16.40
2023-08-17T02:32:38.054Z,14.35
2023-08-17T02:35:06.940Z,19.17
2023-08-17T02:37:35.106Z,12.10
2023-08-17T02:40:03.564Z,17.15
2023-08-17T02:42:31.691Z,14.82
2023-08-17T02:44:59.846Z,13.48
2023-08-17T02:47:28.435Z,12.27
2023-08-17T02:49:58.057Z,15.77
2023-08-17T02:52:25.991Z,15.25
2023-08-17T02:54:54.350Z,14.52
2023-08-17T02:57:22.865Z,13.82
2023-08-17T02:59:51.249Z,15.00
2023-08-17T03:02:19.271Z,13.15
2023-08-17T03:04:48.682Z,12.10
2023-08-17T03:07:18.117Z,15.82
2023-08-17T03:09:46.287Z,17.63
2023-08-17T03:12:14.812Z,14.68
2023-08-17T03:14:43.102Z,15.27
2023-08-17T03:17:11.088Z,18.33
2023-08-17T03:19:39.083Z,15.80
2023-08-17T03:22:07.145Z,15.38
2023-08-17T03:24:36.603Z,13.57
2023-08-17T03:27:04.763Z,16.60
2023-08-17T03:29:32.775Z,13.43
2023-08-17T03:32:01.351Z,15.45
2023-08-17T03:34:29.614Z,15.50
2023-08-17T03:36:56.667Z,14.80
2023-08-17T03:39:24.799Z,18.80
2023-08-17T03:41:54.534Z,16.73
2023-08-17T03:44:22.600Z,15.52
2023-08-17T03:46:50.962Z,14.25
2023-08-17T03:49:19.104Z,16.73
2023-08-17T03:51:47.176Z,15.55
2023-08-17T03:54:15.520Z,15.95
2023-08-17T03:56:43.544Z,14.60
2023-08-17T03:59:12.900Z,13.18
2023-08-17T04:01:41.938Z,18.58
2023-08-17T04:04:09.909Z,16.85
2023-08-17T04:06:40.479Z,15.77
2023-08-17T04:09:10.026Z,11.38
2023-08-17T04:11:38.656Z,16.00
2023-08-17T04:14:10.015Z,19.70
2023-08-17T04:16:40.426Z,16.85
2023-08-17T04:19:08.978Z,15.63
2023-08-17T04:21:39.716Z,17.70
2023-08-17T04:24:08.550Z,14.93
2023-08-17T04:26:36.538Z,15.38
2023-08-17T04:29:04.901Z,16.13
2023-08-17T04:31:33.317Z,16.23
2023-08-17T04:34:03.462Z,15.27
2023-08-17T04:36:32.028Z,20.00
2023-08-17T04:39:00.137Z,22.52
2023-08-17T04:41:28.057Z,24.73
2023-08-17T04:43:56.039Z,27.98
2023-08-17T04:46:24.338Z,34.63
2023-08-17T04:48:53.521Z,34.38
2023-08-17T04:51:25.442Z,34.88
2023-08-17T04:53:54.194Z,37.17
2023-08-17T04:56:22.454Z,49.65
2023-08-17T04:58:50.746Z,48.80
2023-08-17T05:01:23.637Z,51.97
2023-08-17T05:03:51.907Z,57.03
2023-08-17T05:06:19.997Z,67.07
2023-08-17T05:08:49.596Z,74.03
2023-08-17T05:11:17.735Z,71.88
2023-08-17T05:13:45.792Z,78.00
2023-08-17T05:16:13.819Z,78.70
2023-08-17T05:18:41.998Z,76.85
2023-08-17T05:21:10.017Z,72.22
2023-08-17T05:23:39.155Z,71.30
2023-08-17T05:26:09.742Z,81.13
2023-08-17T05:28:37.852Z,80.07
2023-08-17T05:31:07.425Z,78.28
2023-08-17T05:33:35.686Z,80.57
2023-08-17T05:36:04.441Z,77.03
2023-08-17T05:38:33.054Z,78.95
2023-08-17T05:41:03.019Z,75.97
2023-08-17T05:43:33.071Z,81.97
2023-08-17T05:46:01.371Z,75.32
2023-08-17T05:48:29.555Z,77.28
2023-08-17T05:50:59.216Z,70.35
2023-08-17T05:53:27.432Z,80.00
2023-08-17T05:55:55.741Z,79.93
2023-08-17T05:58:23.967Z,74.90
2023-08-17T06:00:53.616Z,74.50
2023-08-17T06:03:21.789Z,75.35
2023-08-17T06:05:50.285Z,73.50
2023-08-17T06:08:18.703Z,72.13
2023-08-17T06:10:46.999Z,64.32
2023-08-17T06:13:15.076Z,63.40
2023-08-17T06:15:43.052Z,61.90
2023-08-17T06:18:14.931Z,60.70
2023-08-17T06:20:43.205Z,58.35
2023-08-17T06:23:11.627Z,55.88
2023-08-17T06:25:39.700Z,58.50
2023-08-17T06:28:08.775Z,56.40
2023-08-17T06:30:37.039Z,54.03
2023-08-17T06:33:06.111Z,50.55
2023-08-17T06:35:35.440Z,54.97
2023-08-17T06:38:04.177Z,45.15
2023-08-17T06:40:32.434Z,44.60
2023-08-17T06:43:00.684Z,48.05
2023-08-17T06:45:31.319Z,43.53
2023-08-17T06:47:59.524Z,40.53
2023-08-17T06:50:27.880Z,42.47
2023-08-17T06:52:57.462Z,47.90
2023-08-17T06:55:25.939Z,47.35
2023-08-17T06:57:53.965Z,46.13
2023-08-17T07:00:22.721Z,39.03
2023-08-17T07:02:54.555Z,37.58
2023-08-17T07:05:24.933Z,34.83
2023-08-17T07:07:54.254Z,42.72
2023-08-17T07:10:23.795Z,31.27
2023-08-17T07:12:51.804Z,26.95
2023-08-17T07:15:20.245Z,34.88
2023-08-17T07:17:48.342Z,39.05
2023-08-17T07:20:17.494Z,43.42
2023-08-17T07:22:45.893Z,39.47
2023-08-17T07:25:14.487Z,38.05
2023-08-17T07:27:44.210Z,28.83
2023-08-17T07:30:13.555Z,29.23
2023-08-17T07:32:41.665Z,25.85
2023-08-17T07:35:10.024Z,23.90
2023-08-17T07:37:38.893Z,24.42
2023-08-17T07:40:08.977Z,28.58
2023-08-17T07:42:38.268Z,31.30
2023-08-17T07:45:10.518Z,26.95
2023-08-17T07:47:38.873Z,27.65
2023-08-17T07:50:08.281Z,26.50
2023-08-17T07:52:36.314Z,26.77
2023-08-17T07:55:04.828Z,33.38
2023-08-17T07:57:33.001Z,26.00
2023-08-17T08:00:01.141Z,21.67
2023-08-17T08:02:31.375Z,23.15
2023-08-17T08:05:00.095Z,22.98
2023-08-17T08:07:28.577Z,19.95
2023-08-17T08:09:57.077Z,22.45
2023-08-17T08:12:25.153Z,21.20
2023-08-17T08:14:54.154Z,21.92
2023-08-17T08:17:22.160Z,16.08
2023-08-17T08:19:52.390Z,19.90
2023-08-17T08:22:20.695Z,18.98
2023-08-17T08:24:49.019Z,18.02
2023-08-17T08:27:17.024Z,19.90
2023-08-17T08:29:45.792Z,18.70
2023-08-17T08:32:13.767Z,22.40
2023-08-17T08:34:42.112Z,19.58
2023-08-17T08:37:11.469Z,21.90
2023-08-17T08:39:51.860Z,19.55
2023-08-17T08:42:20.614Z,19.77
2023-08-17T08:44:49.120Z,19.27
2023-08-17T08:47:19.312Z,22.02
2023-08-17T08:49:52.657Z,17.75
2023-08-17T08:52:26.112Z,15.20
2023-08-17T08:54:59.511Z,15.43
2023-08-17T08:57:31.075Z,15.32
2023-08-17T09:00:01.228Z,19.63
2023-08-17T09:02:29.939Z,16.95
2023-08-17T09:04:59.191Z,17.23
2023-08-17T09:07:31.265Z,15.00
2023-08-17T09:09:59.249Z,15.85
2023-08-17T09:12:39.419Z,16.05
2023-08-17T09:15:09.544Z,17.10
2023-08-17T09:17:37.641Z,15.88
2023-08-17T09:20:08.786Z,13.88
2023-08-17T09:22:42.357Z,17.42
2023-08-17T09:25:12.018Z,17.05
2023-08-17T09:27:42.568Z,15.45
2023-08-17T09:30:13.030Z,14.45
2023-08-17T09:32:41.439Z,13.73
2023-08-17T09:35:10.381Z,13.45
2023-08-17T09:37:38.542Z,13.15
2023-08-17T09:40:10.196Z,11.93
2023-08-17T09:42:38.597Z,11.15
2023-08-17T09:45:08.195Z,13.05
2023-08-17T09:47:37.555Z,11.77
2023-08-17T09:50:08.979Z,11.20
2023-08-17T09:52:41.124Z,9.20
2023-08-17T09:55:13.820Z,10.15
2023-08-17T09:57:43.731Z,12.60
2023-08-17T10:00:13.009Z,11.40
2023-08-17T10:02:40.969Z,9.93
2023-08-17T10:05:14.076Z,8.82
2023-08-17T10:07:48.392Z,11.38
2023-08-17T10:10:23.861Z,8.70
2023-08-17T10:13:06.186Z,8.77
2023-08-17T10:15:37.465Z,10.90
2023-08-17T10:18:16.556Z,10.30
2023-08-17T10:20:49.105Z,10.75
2023-08-17T10:23:19.777Z,8.43
2023-08-17T10:25:51.675Z,9.90
2023-08-17T10:28:20.500Z,10.37
2023-08-17T10:30:49.408Z,11.90
2023-08-17T10:33:17.890Z,11.00
2023-08-17T10:35:47.186Z,9.40
2023-08-17T10:38:15.675Z,10.23
2023-08-17T10:40:44.920Z,12.38
2023-08-17T10:43:15.549Z,8.80
2023-08-17T10:45:48.474Z,10.13
2023-08-17T10:48:30.677Z,11.20
2023-08-17T10:51:04.139Z,13.53
2023-08-17T10:53:39.973Z,15.32
2023-08-17T10:56:11.221Z,10.70
2023-08-17T10:58:42.256Z,11.48
2023-08-17T11:01:11.484Z,8.23
2023-08-17T11:03:40.691Z,9.90
2023-08-17T11:06:19.765Z,9.10
2023-08-17T11:08:57.247Z,9.13
2023-08-17T11:11:26.347Z,9.75
2023-08-17T11:13:57.800Z,9.02
2023-08-17T11:16:27.307Z,10.27
2023-08-17T11:18:58.664Z,7.00
2023-08-17T11:21:27.270Z,10.98
2023-08-17T11:23:58.764Z,11.00
2023-08-17T11:26:27.545Z,9.50
2023-08-17T11:28:57.299Z,11.07
2023-08-17T11:31:25.467Z,8.68
2023-08-17T11:33:56.367Z,9.27
2023-08-17T11:36:25.528Z,9.80
2023-08-17T11:38:55.147Z,7.25
2023-08-17T11:41:23.294Z,12.93
2023-08-17T11:43:52.565Z,10.38
2023-08-17T11:46:28.957Z,9.25
2023-08-17T11:48:57.616Z,10.43
2023-08-17T11:51:32.703Z,10.35
2023-08-17T11:54:04.583Z,9.30
2023-08-17T11:56:33.072Z,8.10
2023-08-17T11:59:01.135Z,8.52
2023-08-17T12:01:36.238Z,7.53
2023-08-17T12:04:07.172Z,9.52
2023-08-17T12:06:35.605Z,6.85
2023-08-17T12:09:07.284Z,7.43
2023-08-17T12:11:35.626Z,6.90
2023-08-17T12:14:11.791Z,6.95
2023-08-17T12:16:50.360Z,6.65
2023-08-17T12:19:21.518Z,7.00
2023-08-17T12:21:50.802Z,6.85
2023-08-17T12:24:20.856Z,13.55
2023-08-17T12:26:49.698Z,7.00
2023-08-17T12:29:21.016Z,8.20
2023-08-17T12:31:50.468Z,6.53
2023-08-17T12:34:19.006Z,6.65
2023-08-17T12:36:47.603Z,6.13
2023-08-17T12:39:15.663Z,7.25
2023-08-17T12:41:46.092Z,6.95
2023-08-17T12:44:17.742Z,8.68
2023-08-17T12:46:46.457Z,6.25
2023-08-17T12:49:16.257Z,6.63
2023-08-17T12:51:46.263Z,7.32
2023-08-17T12:54:14.710Z,5.95
2023-08-17T12:56:42.917Z,6.07
2023-08-17T12:59:11.885Z,6.63
2023-08-17T13:01:40.826Z,7.82
2023-08-17T13:04:09.178Z,7.30
2023-08-17T13:06:48.008Z,8.05
2023-08-17T13:09:19.809Z,6.20
2023-08-17T13:11:48.002Z,5.50
2023-08-17T13:14:16.697Z,7.40
2023-08-17T13:16:45.072Z,7.15
2023-08-17T13:19:13.323Z,6.78
2023-08-17T13:21:42.802Z,11.40
2023-08-17T13:24:11.029Z,8.20
2023-08-17T13:26:39.198Z,11.05
2023-08-17T13:29:07.376Z,7.78
2023-08-17T13:31:36.520Z,6.50
2023-08-17T13:34:04.863Z,8.95
2023-08-17T13:36:33.245Z,8.93
2023-08-17T13:39:09.490Z,8.90
2023-08-17T13:41:37.983Z,8.32
2023-08-17T13:44:06.713Z,6.75
2023-08-17T13:46:34.997Z,6.75
2023-08-17T13:49:03.066Z,10.38
2023-08-17T13:51:31.010Z,8.25
2023-08-17T13:53:58.950Z,8.43
2023-08-17T13:56:29.719Z,8.15
2023-08-17T13:58:57.751Z,7.05
2023-08-17T14:01:25.981Z,6.82
2023-08-17T14:03:54.403Z,8.98
2023-08-17T14:06:22.409Z,7.90
2023-08-17T14:08:50.406Z,8.43
2023-08-17T14:11:18.775Z,7.65
2023-08-17T14:13:48.286Z,7.70
2023-08-17T14:16:16.340Z,7.18
2023-08-17T14:18:44.673Z,8.20
2023-08-17T14:21:13.023Z,11.07
2023-08-17T14:23:41.227Z,8.90
2023-08-17T14:26:09.642Z,14.75
2023-08-17T14:28:37.659Z,9.88
2023-08-17T14:31:07.463Z,9.30
2023-08-17T14:33:35.546Z,10.65
2023-08-17T14:36:04.074Z,6.85
2023-08-17T14:38:32.646Z,8.45
2023-08-17T14:41:01.684Z,7.50
2023-08-17T14:43:29.722Z,7.10
2023-08-17T14:45:57.915Z,8.30
2023-08-17T14:48:27.689Z,6.72
2023-08-17T14:50:56.089Z,6.90
2023-08-17T14:53:24.090Z,6.00
2023-08-17T14:55:52.146Z,8.77
2023-08-17T14:58:20.403Z,8.48
2023-08-17T15:00:48.424Z,6.72
2023-08-17T15:03:16.500Z,6.07
2023-08-17T15:05:45.846Z,5.80
2023-08-17T15:08:13.807Z,7.20
2023-08-17T15:10:42.162Z,6.35
2023-08-17T15:13:11.296Z,9.00
2023-08-17T15:15:39.799Z,8.40
2023-08-17T15:18:08.024Z,11.30
2023-08-17T15:20:36.419Z,10.00
2023-08-17T15:23:07.489Z,10.07
2023-08-17T15:25:35.993Z,8.10
2023-08-17T15:28:04.904Z,9.93
2023-08-17T15:30:34.657Z,7.32
2023-08-17T15:33:02.738Z,9.52
2023-08-17T15:35:30.818Z,8.38
2023-08-17T15:37:59.224Z,9.60
2023-08-17T15:40:28.715Z,8.55
2023-08-17T15:42:56.669Z,8.73
2023-08-17T15:45:25.130Z,7.78
2023-08-17T15:47:53.175Z,6.47
2023-08-17T15:50:21.324Z,6.90
2023-08-17T15:52:49.288Z,6.22
2023-08-17T15:55:17.466Z,7.35
2023-08-17T15:57:47.141Z,10.07
2023-08-17T16:00:15.771Z,7.90
2023-08-17T16:02:43.848Z,7.10
2023-08-17T16:05:12.040Z,7.07
2023-08-17T16:07:40.060Z,6.63
2023-08-17T16:10:09.206Z,6.55
2023-08-17T16:12:42.910Z,7.78
2023-08-17T16:15:13.127Z,7.70
2023-08-17T16:17:41.328Z,4.30
2023-08-17T16:20:11.029Z,6.43
2023-08-17T16:22:39.083Z,5.47
2023-08-17T16:25:08.934Z,7.15
2023-08-17T16:27:38.849Z,6.07
2023-08-17T16:30:08.438Z,5.15
2023-08-17T16:32:38.298Z,5.50
2023-08-17T16:35:08.858Z,7.55
2023-08-17T16:37:40.799Z,4.85
2023-08-17T16:40:15.308Z,5.65
2023-08-17T16:42:53.270Z,4.03
2023-08-17T16:45:21.647Z,5.75
2023-08-17T16:47:51.396Z,5.40
2023-08-17T16:50:19.562Z,3.58
2023-08-17T16:52:47.754Z,6.07
2023-08-17T16:55:17.830Z,4.13
2023-08-17T16:57:46.146Z,3.60
2023-08-17T17:00:15.421Z,4.45
2023-08-17T17:02:43.857Z,4.20
2023-08-17T17:05:13.323Z,5.43
2023-08-17T17:07:41.449Z,4.68
2023-08-17T17:10:10.482Z,5.50
2023-08-17T17:12:40.154Z,4.22
2023-08-17T17:15:09.133Z,6.28
2023-08-17T17:17:37.443Z,10.70
2023-08-17T17:20:06.497Z,6.00
2023-08-17T17:22:37.728Z,6.20
2023-08-17T17:25:06.272Z,5.63
2023-08-17T17:27:36.408Z,8.05
2023-08-17T17:30:05.741Z,5.45
2023-08-17T17:32:33.646Z,23.33
2023-08-17T17:35:02.024Z,7.10
2023-08-17T17:37:30.311Z,4.68
2023-08-17T17:39:59.708Z,8.27
2023-08-17T17:42:27.914Z,11.82
2023-08-17T17:44:58.225Z,6.75
2023-08-17T17:47:28.143Z,6.88
2023-08-17T17:49:56.988Z,5.80
2023-08-17T17:52:28.081Z,5.63
2023-08-17T17:54:56.219Z,5.70
2023-08-17T17:57:26.539Z,6.38
2023-08-17T17:59:55.542Z,8.45
2023-08-17T18:02:26.736Z,8.10
2023-08-17T18:04:55.280Z,7.35
2023-08-17T18:07:23.391Z,7.72
2023-08-17T18:09:51.697Z,6.50
2023-08-17T18:12:19.709Z,6.90
2023-08-17T18:14:49.933Z,7.47
2023-08-17T18:17:18.647Z,10.35
2023-08-17T18:19:46.947Z,10.82
2023-08-17T18:22:14.998Z,7.45
2023-08-17T18:24:45.050Z,8.57
2023-08-17T18:27:13.063Z,10.05
2023-08-17T18:29:41.070Z,11.98
2023-08-17T18:32:10.575Z,10.30
2023-08-17T18:34:38.712Z,8.73
2023-08-17T18:37:07.041Z,12.75
2023-08-17T18:39:34.994Z,10.73
2023-08-17T18:42:04.640Z,8.82
2023-08-17T18:44:32.762Z,11.70
2023-08-17T18:47:00.788Z,8.85
2023-08-17T18:49:30.076Z,6.82
2023-08-17T18:51:58.172Z,9.45
2023-08-17T18:54:26.393Z,9.43
2023-08-17T18:56:54.463Z,11.20
2023-08-17T18:59:22.441Z,8.68
2023-08-17T19:01:50.541Z,9.35
2023-08-17T19:04:18.599Z,13.70
2023-08-17T19:06:48.206Z,6.55
2023-08-17T19:09:16.391Z,9.35
2023-08-17T19:11:44.383Z,7.32
2023-08-17T19:14:12.355Z,8.38
2023-08-17T19:16:41.821Z,9.20
2023-08-17T19:19:10.322Z,11.73
2023-08-17T19:21:38.648Z,9.80
2023-08-17T19:24:08.506Z,8.32
2023-08-17T19:26:36.749Z,10.35
2023-08-17T19:29:04.957Z,14.82
2023-08-17T19:31:33.084Z,7.60
2023-08-17T19:34:01.564Z,10.88
2023-08-17T19:36:29.862Z,10.02
2023-08-17T19:38:57.915Z,8.07
2023-08-17T19:41:27.202Z,9.10
2023-08-17T19:43:55.229Z,10.98
2023-08-17T19:46:23.286Z,11.65
2023-08-17T19:48:51.722Z,12.80
2023-08-17T19:51:19.669Z,6.40
2023-08-17T19:53:47.678Z,8.10
2023-08-17T19:56:16.389Z,13.50
2023-08-17T19:58:47.102Z,8.55
2023-08-17T20:01:15.648Z,9.93
2023-08-17T20:03:49.224Z,11.75
2023-08-17T20:06:17.343Z,12.93
2023-08-17T20:08:45.484Z,10.23
2023-08-17T20:11:14.165Z,11.63
2023-08-17T20:13:42.422Z,7.93
2023-08-17T20:16:11.824Z,10.25
2023-08-17T20:18:40.092Z,10.25
2023-08-17T20:21:08.991Z,14.20
2023-08-17T20:23:37.047Z,11.18
2023-08-17T20:26:05.113Z,9.25
2023-08-17T20:28:33.220Z,8.77
2023-08-17T20:31:01.421Z,10.88
2023-08-17T20:33:30.811Z,10.43
2023-08-17T20:35:59.039Z,11.10
2023-08-17T20:38:27.073Z,13.00
2023-08-17T20:40:55.573Z,12.95
2023-08-17T20:43:24.057Z,10.50
2023-08-17T20:45:52.030Z,10.20
2023-08-17T20:48:20.153Z,10.80
2023-08-17T20:50:49.532Z,12.50
2023-08-17T20:53:17.563Z,13.90
2023-08-17T20:55:45.603Z,10.40
2023-08-17T20:58:14.129Z,13.52
2023-08-17T21:00:42.313Z,8.40
2023-08-17T21:03:10.556Z,8.70
2023-08-17T21:05:38.740Z,10.23
2023-08-17T21:08:08.501Z,9.75
2023-08-17T21:10:36.918Z,11.27
2023-08-17T21:13:05.537Z,10.65
2023-08-17T21:15:33.615Z,13.93
2023-08-17T21:18:01.728Z,11.00
2023-08-17T21:20:32.007Z,10.70
2023-08-17T21:23:00.033Z,12.20
2023-08-17T21:25:30.142Z,11.57
2023-08-17T21:27:58.198Z,10.63
2023-08-17T21:30:26.734Z,8.50
2023-08-17T21:32:54.871Z,11.27
2023-08-17T21:35:23.022Z,11.45
2023-08-17T21:37:51.009Z,10.38
2023-08-17T21:40:19.110Z,11.85
2023-08-17T21:42:48.455Z,12.13
2023-08-17T21:45:16.545Z,12.57
2023-08-17T21:47:44.695Z,11.82
2023-08-17T21:50:13.401Z,12.98
2023-08-17T21:52:41.412Z,12.50
2023-08-17T21:55:10.097Z,11.02
2023-08-17T21:57:38.089Z,14.93
2023-08-17T22:00:08.809Z,11.75
2023-08-17T22:02:36.868Z,12.45
2023-08-17T22:05:06.213Z,12.27
2023-08-17T22:07:34.577Z,12.93
2023-08-17T22:10:02.874Z,10.82
2023-08-17T22:12:31.936Z,11.60
2023-08-17T22:15:00.283Z,11.35
2023-08-17T22:17:29.884Z,16.38
2023-08-17T22:19:58.176Z,14.10
2023-08-17T22:22:26.209Z,15.52
2023-08-17T22:24:54.306Z,13.32
2023-08-17T22:27:22.319Z,13.50
2023-08-17T22:29:50.378Z,15.77
2023-08-17T22:32:18.786Z,13.63
2023-08-17T22:34:50.643Z,14.60
2023-08-17T22:37:19.226Z,16.27
2023-08-17T22:39:48.893Z,17.05
2023-08-17T22:42:17.121Z,12.20
2023-08-17T22:44:45.337Z,14.38
2023-08-17T22:47:13.510Z,18.85
2023-08-17T22:49:41.458Z,16.33
2023-08-17T22:52:10.976Z,14.65
2023-08-17T22:54:39.115Z,13.73
2023-08-17T22:57:07.324Z,14.10
2023-08-17T22:59:35.576Z,15.43
2023-08-17T23:02:03.617Z,15.10
2023-08-17T23:04:31.681Z,13.23
2023-08-17T23:06:59.933Z,14.30
2023-08-17T23:09:29.351Z,11.93
2023-08-17T23:11:57.587Z,11.98
2023-08-17T23:14:25.675Z,15.27
2023-08-17T23:16:53.737Z,14.75
2023-08-17T23:19:21.699Z,12.75
2023-08-17T23:21:49.773Z,13.80
2023-08-17T23:24:18.128Z,12.20
2023-08-17T23:26:47.465Z,12.20
2023-08-17T23:29:15.425Z,13.63
2023-08-17T23:31:43.511Z,10.38
2023-08-17T23:34:11.802Z,14.25
2023-08-17T23:36:40.062Z,16.50
2023-08-17T23:39:08.121Z,13.77
2023-08-17T23:41:36.193Z,13.40
2023-08-17T23:44:08.440Z,15.07
2023-08-17T23:46:36.499Z,13.55
2023-08-17T23:49:04.476Z,12.60
2023-08-17T23:51:32.534Z,12.45
2023-08-17T23:54:00.545Z,12.75
2023-08-17T23:56:28.920Z,10.98
2023-08-17T23:58:56.927Z,14.15
